sensor_id;sensor_type;location;lat;lon;timestamp;pressure;altitude;pressure_sealevel;temperature;humidity
47524;BME280;33253;42.144;25.884;2023-04-20T00:00:48;100070.50;;;10.40;100.00
47524;BME280;33253;42.144;25.884;2023-04-20T00:03:14;100074.16;;;10.21;100.00
47524;BME280;33253;42.144;25.884;2023-04-20T00:05:39;100063.53;;;10.12;100.00
47524;BME280;33253;42.144;25.884;2023-04-20T00:08:05;100051.88;;;9.96;100.00
47524;BME280;33253;42.144;25.884;2023-04-20T00:10:30;100069.75;;;9.91;100.00
47524;BME280;33253;42.144;25.884;2023-04-20T00:12:56;100068.41;;;9.51;100.00
47524;BME280;33253;42.144;25.884;2023-04-20T00:15:21;100030.81;;;9.32;100.00
47524;BME280;33253;42.144;25.884;2023-04-20T00:17:47;100069.50;;;9.58;100.00
47524;BME280;33253;42.144;25.884;2023-04-20T00:20:12;100046.00;;;9.48;100.00
47524;BME280;33253;42.144;25.884;2023-04-20T00:22:39;100046.81;;;9.47;100.00
47524;BME280;33253;42.144;25.884;2023-04-20T00:25:05;100048.47;;;9.45;100.00
47524;BME280;33253;42.144;25.884;2023-04-20T00:27:31;100047.06;;;9.55;100.00
47524;BME280;33253;42.144;25.884;2023-04-20T00:29:56;100047.25;;;9.60;100.00
47524;BME280;33253;42.144;25.884;2023-04-20T00:32:22;100042.34;;;9.67;100.00
47524;BME280;33253;42.144;25.884;2023-04-20T00:34:47;100041.72;;;9.75;100.00
47524;BME280;33253;42.144;25.884;2023-04-20T00:37:13;100036.94;;;9.60;100.00
47524;BME280;33253;42.144;25.884;2023-04-20T00:39:38;100044.50;;;9.31;100.00
47524;BME280;33253;42.144;25.884;2023-04-20T00:42:06;100049.66;;;9.31;100.00
47524;BME280;33253;42.144;25.884;2023-04-20T00:44:32;100021.28;;;9.29;100.00
47524;BME280;33253;42.144;25.884;2023-04-20T00:46:59;100032.69;;;9.36;100.00
47524;BME280;33253;42.144;25.884;2023-04-20T00:49:29;100035.38;;;9.39;100.00
47524;BME280;33253;42.144;25.884;2023-04-20T00:51:58;99989.69;;;9.09;100.00
47524;BME280;33253;42.144;25.884;2023-04-20T00:54:25;100031.75;;;9.34;100.00
47524;BME280;33253;42.144;25.884;2023-04-20T00:56:52;100035.97;;;9.32;100.00
47524;BME280;33253;42.144;25.884;2023-04-20T00:59:19;100041.25;;;9.35;100.00
47524;BME280;33253;42.144;25.884;2023-04-20T01:01:45;100042.78;;;9.30;100.00
47524;BME280;33253;42.144;25.884;2023-04-20T01:04:11;100030.94;;;9.35;100.00
47524;BME280;33253;42.144;25.884;2023-04-20T01:06:36;100041.06;;;9.54;100.00
47524;BME280;33253;42.144;25.884;2023-04-20T01:09:02;100049.19;;;9.67;100.00
47524;BME280;33253;42.144;25.884;2023-04-20T01:11:28;100030.56;;;9.76;100.00
47524;BME280;33253;42.144;25.884;2023-04-20T01:13:53;100036.28;;;9.93;100.00
47524;BME280;33253;42.144;25.884;2023-04-20T01:16:19;100038.78;;;9.90;100.00
47524;BME280;33253;42.144;25.884;2023-04-20T01:18:46;100045.50;;;9.84;100.00
47524;BME280;33253;42.144;25.884;2023-04-20T01:21:13;100036.69;;;9.79;100.00
47524;BME280;33253;42.144;25.884;2023-04-20T01:23:40;100042.84;;;9.83;100.00
47524;BME280;33253;42.144;25.884;2023-04-20T01:26:07;100046.41;;;9.86;100.00
47524;BME280;33253;42.144;25.884;2023-04-20T01:28:33;100041.94;;;9.81;100.00
47524;BME280;33253;42.144;25.884;2023-04-20T01:30:59;100046.94;;;9.76;100.00
47524;BME280;33253;42.144;25.884;2023-04-20T01:33:25;100019.38;;;9.49;100.00
47524;BME280;33253;42.144;25.884;2023-04-20T01:35:51;100036.59;;;9.50;100.00
47524;BME280;33253;42.144;25.884;2023-04-20T01:38:21;100041.53;;;9.44;100.00
47524;BME280;33253;42.144;25.884;2023-04-20T01:40:47;100025.75;;;9.33;100.00
47524;BME280;33253;42.144;25.884;2023-04-20T01:43:13;100037.47;;;9.25;100.00
47524;BME280;33253;42.144;25.884;2023-04-20T01:45:38;100049.03;;;9.12;100.00
47524;BME280;33253;42.144;25.884;2023-04-20T01:48:04;100024.69;;;9.04;100.00
47524;BME280;33253;42.144;25.884;2023-04-20T01:50:29;100034.44;;;9.13;100.00
47524;BME280;33253;42.144;25.884;2023-04-20T01:52:55;100037.75;;;9.09;100.00
47524;BME280;33253;42.144;25.884;2023-04-20T01:55:20;100036.00;;;9.07;100.00
47524;BME280;33253;42.144;25.884;2023-04-20T01:57:45;100045.63;;;9.13;100.00
47524;BME280;33253;42.144;25.884;2023-04-20T02:00:12;100027.00;;;9.20;100.00
47524;BME280;33253;42.144;25.884;2023-04-20T02:02:37;100035.88;;;9.29;100.00
47524;BME280;33253;42.144;25.884;2023-04-20T02:05:03;100029.22;;;9.35;100.00
47524;BME280;33253;42.144;25.884;2023-04-20T02:07:29;100029.28;;;9.37;100.00
47524;BME280;33253;42.144;25.884;2023-04-20T02:09:55;100039.91;;;9.46;100.00
47524;BME280;33253;42.144;25.884;2023-04-20T02:12:20;99999.69;;;9.26;100.00
47524;BME280;33253;42.144;25.884;2023-04-20T02:14:46;100031.25;;;9.44;100.00
47524;BME280;33253;42.144;25.884;2023-04-20T02:17:11;100027.53;;;9.36;100.00
47524;BME280;33253;42.144;25.884;2023-04-20T02:19:38;100028.38;;;9.35;100.00
47524;BME280;33253;42.144;25.884;2023-04-20T02:22:03;100016.09;;;9.28;100.00
47524;BME280;33253;42.144;25.884;2023-04-20T02:24:29;100012.81;;;9.07;100.00
47524;BME280;33253;42.144;25.884;2023-04-20T02:26:54;100018.81;;;9.08;100.00
47524;BME280;33253;42.144;25.884;2023-04-20T02:29:21;100022.28;;;9.09;100.00
47524;BME280;33253;42.144;25.884;2023-04-20T02:31:46;100029.72;;;9.01;100.00
47524;BME280;33253;42.144;25.884;2023-04-20T02:34:12;100014.81;;;8.92;100.00
47524;BME280;33253;42.144;25.884;2023-04-20T02:36:37;100028.97;;;9.03;100.00
47524;BME280;33253;42.144;25.884;2023-04-20T02:39:03;100020.63;;;9.11;100.00
47524;BME280;33253;42.144;25.884;2023-04-20T02:41:28;100024.25;;;9.16;100.00
47524;BME280;33253;42.144;25.884;2023-04-20T02:43:54;100015.56;;;9.12;100.00
47524;BME280;33253;42.144;25.884;2023-04-20T02:46:19;100023.41;;;9.17;100.00
47524;BME280;33253;42.144;25.884;2023-04-20T02:48:45;100019.38;;;9.23;100.00
47524;BME280;33253;42.144;25.884;2023-04-20T02:51:10;100024.25;;;9.16;100.00
47524;BME280;33253;42.144;25.884;2023-04-20T02:53:36;100025.19;;;9.18;100.00
47524;BME280;33253;42.144;25.884;2023-04-20T02:56:01;100015.56;;;9.12;100.00
47524;BME280;33253;42.144;25.884;2023-04-20T02:58:27;100032.69;;;9.12;100.00
47524;BME280;33253;42.144;25.884;2023-04-20T03:01:00;100021.53;;;9.11;100.00
47524;BME280;33253;42.144;25.884;2023-04-20T03:03:27;100026.91;;;9.17;100.00
47524;BME280;33253;42.144;25.884;2023-04-20T03:05:53;100025.13;;;9.16;100.00
47524;BME280;33253;42.144;25.884;2023-04-20T03:08:20;100014.78;;;9.15;100.00
47524;BME280;33253;42.144;25.884;2023-04-20T03:10:45;100011.31;;;9.14;100.00
47524;BME280;33253;42.144;25.884;2023-04-20T03:13:10;99989.97;;;8.93;100.00
47524;BME280;33253;42.144;25.884;2023-04-20T03:15:36;100019.41;;;9.01;100.00
47524;BME280;33253;42.144;25.884;2023-04-20T03:18:01;99991.38;;;8.84;100.00
47524;BME280;33253;42.144;25.884;2023-04-20T03:20:28;100031.66;;;9.06;100.00
47524;BME280;33253;42.144;25.884;2023-04-20T03:22:53;100037.44;;;9.01;100.00
47524;BME280;33253;42.144;25.884;2023-04-20T03:25:19;100029.72;;;9.01;100.00
47524;BME280;33253;42.144;25.884;2023-04-20T03:27:45;100018.34;;;8.94;100.00
47524;BME280;33253;42.144;25.884;2023-04-20T03:30:11;100031.22;;;8.94;100.00
47524;BME280;33253;42.144;25.884;2023-04-20T03:32:37;100029.50;;;8.95;100.00
47524;BME280;33253;42.144;25.884;2023-04-20T03:35:04;100041.22;;;8.86;100.00
47524;BME280;33253;42.144;25.884;2023-04-20T03:37:29;100029.06;;;8.82;100.00
47524;BME280;33253;42.144;25.884;2023-04-20T03:39:55;100032.75;;;8.89;100.00
47524;BME280;33253;42.144;25.884;2023-04-20T03:42:21;100039.75;;;8.93;100.00
47524;BME280;33253;42.144;25.884;2023-04-20T03:44:46;100039.09;;;8.99;100.00
47524;BME280;33253;42.144;25.884;2023-04-20T03:47:11;100045.28;;;9.04;100.00
47524;BME280;33253;42.144;25.884;2023-04-20T03:49:37;100035.75;;;9.01;100.00
47524;BME280;33253;42.144;25.884;2023-04-20T03:52:04;100006.22;;;8.92;100.00
47524;BME280;33253;42.144;25.884;2023-04-20T03:54:30;100040.47;;;9.13;100.00
47524;BME280;33253;42.144;25.884;2023-04-20T03:56:55;100036.91;;;9.10;100.00
47524;BME280;33253;42.144;25.884;2023-04-20T03:59:21;100030.03;;;9.09;100.00
47524;BME280;33253;42.144;25.884;2023-04-20T04:01:46;100017.78;;;9.03;100.00
47524;BME280;33253;42.144;25.884;2023-04-20T04:04:12;100052.78;;;9.22;100.00
47524;BME280;33253;42.144;25.884;2023-04-20T04:06:37;100058.94;;;9.26;100.00
47524;BME280;33253;42.144;25.884;2023-04-20T04:09:03;100051.97;;;9.23;100.00
47524;BME280;33253;42.144;25.884;2023-04-20T04:11:28;100059.78;;;9.25;100.00
47524;BME280;33253;42.144;25.884;2023-04-20T04:13:56;100057.38;;;9.31;100.00
47524;BME280;33253;42.144;25.884;2023-04-20T04:16:21;100058.34;;;9.33;100.00
47524;BME280;33253;42.144;25.884;2023-04-20T04:18:47;100057.56;;;9.35;100.00
47524;BME280;33253;42.144;25.884;2023-04-20T04:21:12;100062.72;;;9.35;100.00
47524;BME280;33253;42.144;25.884;2023-04-20T04:23:38;100066.09;;;9.34;100.00
47524;BME280;33253;42.144;25.884;2023-04-20T04:26:03;100067.03;;;9.36;100.00
47524;BME280;33253;42.144;25.884;2023-04-20T04:28:30;100053.94;;;9.30;100.00
47524;BME280;33253;42.144;25.884;2023-04-20T04:30:56;100068.75;;;9.36;100.00
47524;BME280;33253;42.144;25.884;2023-04-20T04:33:22;100054.94;;;9.34;100.00
47524;BME280;33253;42.144;25.884;2023-04-20T04:35:48;100047.94;;;9.30;100.00
47524;BME280;33253;42.144;25.884;2023-04-20T04:38:13;100056.69;;;9.35;100.00
47524;BME280;33253;42.144;25.884;2023-04-20T04:40:39;100038.63;;;9.33;100.00
47524;BME280;33253;42.144;25.884;2023-04-20T04:43:07;100011.44;;;9.17;100.00
47524;BME280;33253;42.144;25.884;2023-04-20T04:45:37;100046.28;;;9.32;100.00
47524;BME280;33253;42.144;25.884;2023-04-20T04:48:04;100053.31;;;9.36;100.00
47524;BME280;33253;42.144;25.884;2023-04-20T04:50:29;100040.22;;;9.30;100.00
47524;BME280;33253;42.144;25.884;2023-04-20T04:52:55;100039.19;;;9.25;100.00
47524;BME280;33253;42.144;25.884;2023-04-20T04:55:21;100044.47;;;9.29;100.00
47524;BME280;33253;42.144;25.884;2023-04-20T04:57:46;100054.94;;;9.34;100.00
47524;BME280;33253;42.144;25.884;2023-04-20T05:00:12;100051.75;;;9.41;100.00
47524;BME280;33253;42.144;25.884;2023-04-20T05:02:38;100055.25;;;9.43;100.00
47524;BME280;33253;42.144;25.884;2023-04-20T05:05:04;100056.22;;;9.47;100.00
47524;BME280;33253;42.144;25.884;2023-04-20T05:07:29;100053.78;;;9.50;100.00
47524;BME280;33253;42.144;25.884;2023-04-20T05:09:55;100053.81;;;9.51;100.00
47524;BME280;33253;42.144;25.884;2023-04-20T05:12:20;100055.97;;;9.63;100.00
47524;BME280;33253;42.144;25.884;2023-04-20T05:14:46;100049.13;;;9.65;100.00
47524;BME280;33253;42.144;25.884;2023-04-20T05:17:11;100045.00;;;9.70;100.00
47524;BME280;33253;42.144;25.884;2023-04-20T05:19:36;100059.81;;;9.76;100.00
47524;BME280;33253;42.144;25.884;2023-04-20T05:22:02;100039.94;;;9.72;100.00
47524;BME280;33253;42.144;25.884;2023-04-20T05:24:27;100057.53;;;9.85;100.00
47524;BME280;33253;42.144;25.884;2023-04-20T05:26:53;100063.13;;;9.72;100.00
47524;BME280;33253;42.144;25.884;2023-04-20T05:29:19;100022.69;;;9.45;100.00
47524;BME280;33253;42.144;25.884;2023-04-20T05:31:44;100061.16;;;9.65;100.00
47524;BME280;33253;42.144;25.884;2023-04-20T05:34:09;100063.00;;;9.69;100.00
47524;BME280;33253;42.144;25.884;2023-04-20T05:36:35;100057.13;;;9.73;100.00
47524;BME280;33253;42.144;25.884;2023-04-20T05:39:01;100054.25;;;9.90;100.00
47524;BME280;33253;42.144;25.884;2023-04-20T05:41:27;100065.00;;;10.03;100.00
47524;BME280;33253;42.144;25.884;2023-04-20T05:43:53;100053.22;;;10.12;100.00
47524;BME280;33253;42.144;25.884;2023-04-20T05:46:19;100053.81;;;10.30;100.00
47524;BME280;33253;42.144;25.884;2023-04-20T05:48:45;100052.59;;;10.46;100.00
47524;BME280;33253;42.144;25.884;2023-04-20T05:51:10;100029.22;;;10.42;100.00
47524;BME280;33253;42.144;25.884;2023-04-20T05:53:36;100069.13;;;10.80;100.00
47524;BME280;33253;42.144;25.884;2023-04-20T05:56:01;100025.09;;;10.76;100.00
47524;BME280;33253;42.144;25.884;2023-04-20T05:58:27;100056.25;;;11.12;100.00
47524;BME280;33253;42.144;25.884;2023-04-20T06:00:53;100068.72;;;11.27;100.00
47524;BME280;33253;42.144;25.884;2023-04-20T06:03:18;100063.97;;;11.43;100.00
47524;BME280;33253;42.144;25.884;2023-04-20T06:05:44;100067.06;;;11.61;100.00
47524;BME280;33253;42.144;25.884;2023-04-20T06:08:10;100064.47;;;11.61;100.00
47524;BME280;33253;42.144;25.884;2023-04-20T06:10:35;100079.22;;;11.65;100.00
47524;BME280;33253;42.144;25.884;2023-04-20T06:13:01;100086.47;;;11.79;100.00
47524;BME280;33253;42.144;25.884;2023-04-20T06:15:26;100078.56;;;11.73;100.00
47524;BME280;33253;42.144;25.884;2023-04-20T06:17:52;100078.56;;;11.73;100.00
47524;BME280;33253;42.144;25.884;2023-04-20T06:20:17;100085.72;;;11.83;100.00
47524;BME280;33253;42.144;25.884;2023-04-20T06:22:45;100077.00;;;11.79;100.00
47524;BME280;33253;42.144;25.884;2023-04-20T06:25:11;100081.66;;;11.93;100.00
47524;BME280;33253;42.144;25.884;2023-04-20T06:27:36;100072.66;;;11.78;100.00
47524;BME280;33253;42.144;25.884;2023-04-20T06:30:02;100072.09;;;11.90;100.00
47524;BME280;33253;42.144;25.884;2023-04-20T06:32:28;100066.38;;;12.02;100.00
47524;BME280;33253;42.144;25.884;2023-04-20T06:34:54;100086.47;;;12.12;100.00
47524;BME280;33253;42.144;25.884;2023-04-20T06:37:19;100086.72;;;12.23;100.00
47524;BME280;33253;42.144;25.884;2023-04-20T06:39:45;100095.25;;;12.19;100.00
47524;BME280;33253;42.144;25.884;2023-04-20T06:42:10;100067.13;;;11.98;100.00
47524;BME280;33253;42.144;25.884;2023-04-20T06:44:36;100069.03;;;12.05;100.00
47524;BME280;33253;42.144;25.884;2023-04-20T06:47:01;100087.00;;;12.36;100.00
47524;BME280;33253;42.144;25.884;2023-04-20T06:49:26;100085.50;;;12.45;100.00
47524;BME280;33253;42.144;25.884;2023-04-20T06:51:52;100082.94;;;12.47;100.00
47524;BME280;33253;42.144;25.884;2023-04-20T06:54:17;100045.69;;;12.39;100.00
47524;BME280;33253;42.144;25.884;2023-04-20T06:56:43;100089.75;;;12.80;100.00
47524;BME280;33253;42.144;25.884;2023-04-20T06:59:08;100098.25;;;12.74;100.00
47524;BME280;33253;42.144;25.884;2023-04-20T07:01:34;100094.13;;;12.84;100.00
47524;BME280;33253;42.144;25.884;2023-04-20T07:03:59;100099.34;;;12.86;100.00
47524;BME280;33253;42.144;25.884;2023-04-20T07:06:25;100090.25;;;13.05;100.00
47524;BME280;33253;42.144;25.884;2023-04-20T07:08:51;100096.38;;;13.08;100.00
47524;BME280;33253;42.144;25.884;2023-04-20T07:11:17;100089.38;;;13.04;100.00
47524;BME280;33253;42.144;25.884;2023-04-20T07:13:42;100086.94;;;13.12;100.00
47524;BME280;33253;42.144;25.884;2023-04-20T07:16:08;100090.09;;;13.38;100.00
47524;BME280;33253;42.144;25.884;2023-04-20T07:18:34;100086.69;;;13.41;100.00
47524;BME280;33253;42.144;25.884;2023-04-20T07:21:00;100081.69;;;13.52;100.00
47524;BME280;33253;42.144;25.884;2023-04-20T07:23:26;100069.78;;;13.63;100.00
47524;BME280;33253;42.144;25.884;2023-04-20T07:25:51;100082.38;;;13.90;100.00
47524;BME280;33253;42.144;25.884;2023-04-20T07:28:17;100087.53;;;13.89;100.00
47524;BME280;33253;42.144;25.884;2023-04-20T07:30:42;100081.38;;;13.82;100.00
47524;BME280;33253;42.144;25.884;2023-04-20T07:33:07;100072.03;;;13.92;100.00
47524;BME280;33253;42.144;25.884;2023-04-20T07:35:35;100105.91;;;14.01;100.00
47524;BME280;33253;42.144;25.884;2023-04-20T07:38:00;100086.16;;;14.10;100.00
47524;BME280;33253;42.144;25.884;2023-04-20T07:40:26;100071.72;;;14.26;100.00
47524;BME280;33253;42.144;25.884;2023-04-20T07:42:51;100066.75;;;14.43;100.00
47524;BME280;33253;42.144;25.884;2023-04-20T07:45:17;100086.88;;;14.57;99.78
47524;BME280;33253;42.144;25.884;2023-04-20T07:47:42;100044.91;;;14.28;100.00
47524;BME280;33253;42.144;25.884;2023-04-20T07:50:11;100079.84;;;14.49;100.00
47524;BME280;33253;42.144;25.884;2023-04-20T07:52:36;100088.44;;;14.45;100.00
47524;BME280;33253;42.144;25.884;2023-04-20T07:55:03;100090.09;;;14.39;100.00
47524;BME280;33253;42.144;25.884;2023-04-20T07:57:29;100033.63;;;14.24;100.00
47524;BME280;33253;42.144;25.884;2023-04-20T07:59:54;100088.59;;;14.55;100.00
47524;BME280;33253;42.144;25.884;2023-04-20T08:02:20;100089.69;;;14.68;100.00
47524;BME280;33253;42.144;25.884;2023-04-20T08:04:45;100078.53;;;14.79;100.00
47524;BME280;33253;42.144;25.884;2023-04-20T08:07:12;100074.34;;;14.87;100.00
47524;BME280;33253;42.144;25.884;2023-04-20T08:09:38;100072.69;;;14.94;100.00
47524;BME280;33253;42.144;25.884;2023-04-20T08:12:04;100066.72;;;15.02;100.00
47524;BME280;33253;42.144;25.884;2023-04-20T08:14:30;100066.72;;;15.04;100.00
47524;BME280;33253;42.144;25.884;2023-04-20T08:16:56;100078.19;;;15.20;100.00
47524;BME280;33253;42.144;25.884;2023-04-20T08:19:22;100056.25;;;14.96;99.77
47524;BME280;33253;42.144;25.884;2023-04-20T08:21:47;100059.06;;;15.15;100.00
47524;BME280;33253;42.144;25.884;2023-04-20T08:24:12;100069.78;;;15.43;100.00
47524;BME280;33253;42.144;25.884;2023-04-20T08:26:38;100066.19;;;15.31;97.78
47524;BME280;33253;42.144;25.884;2023-04-20T08:29:04;100064.63;;;15.46;96.46
47524;BME280;33253;42.144;25.884;2023-04-20T08:31:30;100037.69;;;15.42;98.06
47524;BME280;33253;42.144;25.884;2023-04-20T08:33:56;100062.13;;;15.58;96.26
47524;BME280;33253;42.144;25.884;2023-04-20T08:36:21;100063.06;;;15.65;97.19
47524;BME280;33253;42.144;25.884;2023-04-20T08:38:56;100023.91;;;15.52;98.05
47524;BME280;33253;42.144;25.884;2023-04-20T08:41:29;100062.44;;;15.88;93.55
47524;BME280;33253;42.144;25.884;2023-04-20T08:43:55;100058.22;;;15.99;92.50
47524;BME280;33253;42.144;25.884;2023-04-20T08:46:21;100066.03;;;16.00;93.55
47524;BME280;33253;42.144;25.884;2023-04-20T08:48:47;100074.69;;;15.96;91.23
47524;BME280;33253;42.144;25.884;2023-04-20T08:51:14;100070.22;;;15.86;97.29
47524;BME280;33253;42.144;25.884;2023-04-20T08:53:41;100057.22;;;15.86;97.99
47524;BME280;33253;42.144;25.884;2023-04-20T08:56:07;100065.16;;;16.01;93.24
47524;BME280;33253;42.144;25.884;2023-04-20T08:58:32;100055.59;;;15.99;95.82
47524;BME280;33253;42.144;25.884;2023-04-20T09:00:58;100049.53;;;16.03;93.80
47524;BME280;33253;42.144;25.884;2023-04-20T09:03:36;100061.75;;;16.09;92.90
47524;BME280;33253;42.144;25.884;2023-04-20T09:06:03;100056.66;;;16.26;94.33
47524;BME280;33253;42.144;25.884;2023-04-20T09:08:36;100053.34;;;16.53;93.77
47524;BME280;33253;42.144;25.884;2023-04-20T09:11:02;100056.09;;;16.78;95.60
47524;BME280;33253;42.144;25.884;2023-04-20T09:13:28;100020.25;;;16.40;91.76
47524;BME280;33253;42.144;25.884;2023-04-20T09:15:53;100057.78;;;16.70;92.16
47524;BME280;33253;42.144;25.884;2023-04-20T09:18:20;100047.41;;;16.79;93.03
47524;BME280;33253;42.144;25.884;2023-04-20T09:20:48;100051.69;;;16.60;90.81
47524;BME280;33253;42.144;25.884;2023-04-20T09:23:17;100056.97;;;16.85;92.42
47524;BME280;33253;42.144;25.884;2023-04-20T09:25:50;100012.66;;;16.83;88.65
47524;BME280;33253;42.144;25.884;2023-04-20T09:28:17;100007.59;;;17.11;90.16
47524;BME280;33253;42.144;25.884;2023-04-20T09:30:47;100041.53;;;17.29;91.08
47524;BME280;33253;42.144;25.884;2023-04-20T09:33:13;100049.34;;;17.20;88.61
47524;BME280;33253;42.144;25.884;2023-04-20T09:35:40;100037.13;;;17.05;89.88
47524;BME280;33253;42.144;25.884;2023-04-20T09:38:07;100003.22;;;17.05;87.03
47524;BME280;33253;42.144;25.884;2023-04-20T09:40:34;100028.50;;;17.28;88.55
47524;BME280;33253;42.144;25.884;2023-04-20T09:43:09;100031.13;;;17.48;83.95
47524;BME280;33253;42.144;25.884;2023-04-20T09:45:37;99996.31;;;17.29;80.98
47524;BME280;33253;42.144;25.884;2023-04-20T09:48:06;100018.94;;;17.44;84.24
47524;BME280;33253;42.144;25.884;2023-04-20T09:50:35;100018.09;;;17.65;84.56
47524;BME280;33253;42.144;25.884;2023-04-20T09:53:01;100017.19;;;17.37;81.23
47524;BME280;33253;42.144;25.884;2023-04-20T09:55:29;100007.66;;;17.60;81.79
47524;BME280;33253;42.144;25.884;2023-04-20T09:57:55;99992.00;;;17.88;83.85
47524;BME280;33253;42.144;25.884;2023-04-20T10:00:21;100011.16;;;18.24;82.91
47524;BME280;33253;42.144;25.884;2023-04-20T10:02:48;100013.72;;;18.34;82.66
47524;BME280;33253;42.144;25.884;2023-04-20T10:05:13;99965.88;;;17.60;82.30
47524;BME280;33253;42.144;25.884;2023-04-20T10:07:41;99993.75;;;18.05;85.76
47524;BME280;33253;42.144;25.884;2023-04-20T10:10:11;99998.91;;;18.33;82.71
47524;BME280;33253;42.144;25.884;2023-04-20T10:15:17;99990.06;;;18.77;77.56
47524;BME280;33253;42.144;25.884;2023-04-20T10:17:43;99977.03;;;18.65;80.15
47524;BME280;33253;42.144;25.884;2023-04-20T10:20:26;99966.44;;;18.99;78.07
47524;BME280;33253;42.144;25.884;2023-04-20T10:22:52;99972.66;;;18.73;78.32
47524;BME280;33253;42.144;25.884;2023-04-20T10:25:23;99965.66;;;18.75;77.75
47524;BME280;33253;42.144;25.884;2023-04-20T10:28:11;99947.56;;;18.19;75.74
47524;BME280;33253;42.144;25.884;2023-04-20T10:30:49;99971.78;;;18.66;82.87
47524;BME280;33253;42.144;25.884;2023-04-20T10:33:15;99962.03;;;19.04;80.24
47524;BME280;33253;42.144;25.884;2023-04-20T10:35:50;99964.59;;;19.19;79.24
47524;BME280;33253;42.144;25.884;2023-04-20T10:38:34;99972.44;;;19.16;74.03
47524;BME280;33253;42.144;25.884;2023-04-20T10:41:12;99966.38;;;19.14;77.62
47524;BME280;33253;42.144;25.884;2023-04-20T10:43:44;99967.13;;;19.32;71.64
47524;BME280;33253;42.144;25.884;2023-04-20T10:46:24;99966.09;;;19.50;73.72
47524;BME280;33253;42.144;25.884;2023-04-20T10:48:57;99963.84;;;18.92;73.48
47524;BME280;33253;42.144;25.884;2023-04-20T10:51:30;99967.25;;;19.10;72.36
47524;BME280;33253;42.144;25.884;2023-04-20T10:54:09;99962.72;;;19.37;72.96
47524;BME280;33253;42.144;25.884;2023-04-20T10:56:52;99960.59;;;19.81;72.63
47524;BME280;33253;42.144;25.884;2023-04-20T10:59:46;99946.53;;;19.94;74.90
47524;BME280;33253;42.144;25.884;2023-04-20T11:02:28;99962.38;;;19.77;70.66
47524;BME280;33253;42.144;25.884;2023-04-20T11:05:13;99957.97;;;19.81;73.16
47524;BME280;33253;42.144;25.884;2023-04-20T11:07:58;99952.13;;;19.54;66.14
47524;BME280;33253;42.144;25.884;2023-04-20T11:10:46;99959.56;;;20.00;70.97
47524;BME280;33253;42.144;25.884;2023-04-20T11:13:24;99946.97;;;20.35;68.72
47524;BME280;33253;42.144;25.884;2023-04-20T11:16:08;99945.19;;;20.37;63.68
47524;BME280;33253;42.144;25.884;2023-04-20T11:19:01;99942.13;;;20.77;64.70
47524;BME280;33253;42.144;25.884;2023-04-20T11:21:41;99942.13;;;20.76;58.25
47524;BME280;33253;42.144;25.884;2023-04-20T11:24:32;99950.59;;;20.96;61.85
47524;BME280;33253;42.144;25.884;2023-04-20T11:27:21;99937.63;;;20.85;64.50
47524;BME280;33253;42.144;25.884;2023-04-20T11:29:58;99929.25;;;20.54;64.12
47524;BME280;33253;42.144;25.884;2023-04-20T11:32:25;99933.69;;;20.50;61.43
47524;BME280;33253;42.144;25.884;2023-04-20T11:35:02;99922.91;;;20.75;63.59
47524;BME280;33253;42.144;25.884;2023-04-20T11:37:31;99929.72;;;20.87;61.52
47524;BME280;33253;42.144;25.884;2023-04-20T11:40:04;99909.63;;;20.88;62.40
47524;BME280;33253;42.144;25.884;2023-04-20T11:42:34;99913.53;;;21.16;58.48
47524;BME280;33253;42.144;25.884;2023-04-20T11:45:00;99918.19;;;20.99;57.53
47524;BME280;33253;42.144;25.884;2023-04-20T11:47:25;99906.34;;;20.67;55.50
47524;BME280;33253;42.144;25.884;2023-04-20T11:49:51;99913.56;;;20.51;56.43
47524;BME280;33253;42.144;25.884;2023-04-20T11:52:17;99908.38;;;20.46;58.64
47524;BME280;33253;42.144;25.884;2023-04-20T11:54:42;99913.22;;;20.07;62.06
47524;BME280;33253;42.144;25.884;2023-04-20T11:57:08;99893.53;;;20.45;60.86
47524;BME280;33253;42.144;25.884;2023-04-20T11:59:33;99923.81;;;19.96;64.48
47524;BME280;33253;42.144;25.884;2023-04-20T12:01:58;99888.41;;;19.53;67.43
47524;BME280;33253;42.144;25.884;2023-04-20T12:04:28;99922.59;;;19.33;68.57
47524;BME280;33253;42.144;25.884;2023-04-20T12:06:54;99911.63;;;18.77;67.56
47524;BME280;33253;42.144;25.884;2023-04-20T12:09:19;99928.28;;;18.51;67.89
47524;BME280;33253;42.144;25.884;2023-04-20T12:11:45;99900.63;;;17.23;72.67
47524;BME280;33253;42.144;25.884;2023-04-20T12:14:11;99926.75;;;17.28;76.59
47524;BME280;33253;42.144;25.884;2023-04-20T12:16:36;99929.34;;;17.26;75.51
47524;BME280;33253;42.144;25.884;2023-04-20T12:19:02;99924.13;;;17.22;74.43
47524;BME280;33253;42.144;25.884;2023-04-20T12:21:27;99932.81;;;17.19;76.29
47524;BME280;33253;42.144;25.884;2023-04-20T12:23:52;99928.41;;;16.93;73.56
47524;BME280;33253;42.144;25.884;2023-04-20T12:26:18;99922.22;;;16.63;74.03
47524;BME280;33253;42.144;25.884;2023-04-20T12:28:43;99931.75;;;16.52;76.54
47524;BME280;33253;42.144;25.884;2023-04-20T12:31:12;99932.56;;;16.39;79.89
47524;BME280;33253;42.144;25.884;2023-04-20T12:33:37;99913.44;;;16.37;80.48
47524;BME280;33253;42.144;25.884;2023-04-20T12:36:23;99925.66;;;16.44;79.85
47524;BME280;33253;42.144;25.884;2023-04-20T12:38:51;99877.81;;;16.28;75.72
47524;BME280;33253;42.144;25.884;2023-04-20T12:41:16;99927.34;;;16.36;77.16
47524;BME280;33253;42.144;25.884;2023-04-20T12:43:42;99903.88;;;16.29;77.59